sensor_id;sensor_type;location;lat;lon;timestamp;temperature;humidity
22319;DHT22;11327;52.334;9.506;2024-02-21T00:02:52;8.80;99.90
22319;DHT22;11327;52.334;9.506;2024-02-21T00:06:13;8.80;99.90
22319;DHT22;11327;52.334;9.506;2024-02-21T00:09:34;8.80;99.90
22319;DHT22;11327;52.334;9.506;2024-02-21T00:12:55;8.80;99.90
22319;DHT22;11327;52.334;9.506;2024-02-21T00:16:15;8.80;99.90
22319;DHT22;11327;52.334;9.506;2024-02-21T00:19:36;8.80;99.90
22319;DHT22;11327;52.334;9.506;2024-02-21T00:22:57;8.80;99.90
22319;DHT22;11327;52.334;9.506;2024-02-21T00:26:17;8.80;99.90
22319;DHT22;11327;52.334;9.506;2024-02-21T00:29:38;8.80;99.90
22319;DHT22;11327;52.334;9.506;2024-02-21T00:32:59;8.80;99.90
22319;DHT22;11327;52.334;9.506;2024-02-21T00:36:19;8.80;99.90
22319;DHT22;11327;52.334;9.506;2024-02-21T00:39:40;8.80;99.90
22319;DHT22;11327;52.334;9.506;2024-02-21T00:43:03;8.90;99.90
22319;DHT22;11327;52.334;9.506;2024-02-21T00:46:23;8.90;99.90
22319;DHT22;11327;52.334;9.506;2024-02-21T00:49:44;8.80;99.90
22319;DHT22;11327;52.334;9.506;2024-02-21T00:53:07;8.90;99.90
22319;DHT22;11327;52.334;9.506;2024-02-21T00:56:27;9.50;99.90
22319;DHT22;11327;52.334;9.506;2024-02-21T00:59:48;8.90;99.90
22319;DHT22;11327;52.334;9.506;2024-02-21T01:03:09;8.90;99.90
22319;DHT22;11327;52.334;9.506;2024-02-21T01:06:30;8.90;99.90
22319;DHT22;11327;52.334;9.506;2024-02-21T01:09:51;8.90;99.90
22319;DHT22;11327;52.334;9.506;2024-02-21T01:13:11;8.90;99.90
22319;DHT22;11327;52.334;9.506;2024-02-21T01:16:32;8.80;99.90
22319;DHT22;11327;52.334;9.506;2024-02-21T01:19:53;8.90;99.90
22319;DHT22;11327;52.334;9.506;2024-02-21T01:23:13;8.80;99.90
22319;DHT22;11327;52.334;9.506;2024-02-21T01:26:34;8.90;99.90
22319;DHT22;11327;52.334;9.506;2024-02-21T01:29:55;8.90;99.90
22319;DHT22;11327;52.334;9.506;2024-02-21T01:33:15;8.90;99.90
22319;DHT22;11327;52.334;9.506;2024-02-21T01:36:36;9.00;99.90
22319;DHT22;11327;52.334;9.506;2024-02-21T01:39:57;8.90;99.90
22319;DHT22;11327;52.334;9.506;2024-02-21T01:43:19;8.90;99.90
22319;DHT22;11327;52.334;9.506;2024-02-21T01:46:41;8.90;99.90
22319;DHT22;11327;52.334;9.506;2024-02-21T01:50:02;8.90;99.90
22319;DHT22;11327;52.334;9.506;2024-02-21T01:53:27;8.90;99.90
22319;DHT22;11327;52.334;9.506;2024-02-21T01:56:48;9.00;99.90
22319;DHT22;11327;52.334;9.506;2024-02-21T02:00:10;9.00;99.90
22319;DHT22;11327;52.334;9.506;2024-02-21T02:03:34;9.00;99.90
22319;DHT22;11327;52.334;9.506;2024-02-21T02:06:55;8.90;99.90
22319;DHT22;11327;52.334;9.506;2024-02-21T02:10:16;9.00;99.90
22319;DHT22;11327;52.334;9.506;2024-02-21T02:13:36;9.10;99.90
22319;DHT22;11327;52.334;9.506;2024-02-21T02:16:57;9.00;99.90
22319;DHT22;11327;52.334;9.506;2024-02-21T02:20:18;9.00;99.90
22319;DHT22;11327;52.334;9.506;2024-02-21T02:23:39;9.00;99.90
22319;DHT22;11327;52.334;9.506;2024-02-21T02:27:00;9.00;99.90
22319;DHT22;11327;52.334;9.506;2024-02-21T02:30:21;9.00;99.90
22319;DHT22;11327;52.334;9.506;2024-02-21T02:33:45;9.00;99.90
22319;DHT22;11327;52.334;9.506;2024-02-21T02:37:05;9.00;99.90
22319;DHT22;11327;52.334;9.506;2024-02-21T02:40:26;9.00;99.90
22319;DHT22;11327;52.334;9.506;2024-02-21T02:43:47;9.00;99.90
22319;DHT22;11327;52.334;9.506;2024-02-21T02:47:08;9.00;99.90
22319;DHT22;11327;52.334;9.506;2024-02-21T02:50:30;8.90;99.90
22319;DHT22;11327;52.334;9.506;2024-02-21T02:53:50;9.00;99.90
22319;DHT22;11327;52.334;9.506;2024-02-21T02:57:11;9.00;99.90
22319;DHT22;11327;52.334;9.506;2024-02-21T03:00:32;9.00;99.90
22319;DHT22;11327;52.334;9.506;2024-02-21T03:03:54;9.50;99.90
22319;DHT22;11327;52.334;9.506;2024-02-21T03:07:15;9.00;99.90
22319;DHT22;11327;52.334;9.506;2024-02-21T03:10:36;9.00;99.90
22319;DHT22;11327;52.334;9.506;2024-02-21T03:13:57;8.90;99.90
22319;DHT22;11327;52.334;9.506;2024-02-21T03:17:17;9.00;99.90
22319;DHT22;11327;52.334;9.506;2024-02-21T03:20:38;9.00;99.90
22319;DHT22;11327;52.334;9.506;2024-02-21T03:23:59;9.10;99.90
22319;DHT22;11327;52.334;9.506;2024-02-21T03:27:19;9.00;99.90
22319;DHT22;11327;52.334;9.506;2024-02-21T03:30:40;9.00;99.90
22319;DHT22;11327;52.334;9.506;2024-02-21T03:34:01;8.90;99.90
22319;DHT22;11327;52.334;9.506;2024-02-21T03:37:22;9.00;99.90
22319;DHT22;11327;52.334;9.506;2024-02-21T03:40:42;9.60;99.90
22319;DHT22;11327;52.334;9.506;2024-02-21T03:44:03;9.00;99.90
22319;DHT22;11327;52.334;9.506;2024-02-21T03:47:24;9.00;99.90
22319;DHT22;11327;52.334;9.506;2024-02-21T03:50:45;8.90;99.90
22319;DHT22;11327;52.334;9.506;2024-02-21T03:54:06;9.00;99.90
22319;DHT22;11327;52.334;9.506;2024-02-21T03:57:26;8.90;99.90
22319;DHT22;11327;52.334;9.506;2024-02-21T04:00:47;8.90;99.90
22319;DHT22;11327;52.334;9.506;2024-02-21T04:04:09;8.90;99.90
22319;DHT22;11327;52.334;9.506;2024-02-21T04:07:30;8.90;99.90
22319;DHT22;11327;52.334;9.506;2024-02-21T04:10:51;8.90;99.90
22319;DHT22;11327;52.334;9.506;2024-02-21T04:14:12;8.90;99.90
22319;DHT22;11327;52.334;9.506;2024-02-21T04:17:32;8.90;99.90
22319;DHT22;11327;52.334;9.506;2024-02-21T04:20:53;8.90;99.90
22319;DHT22;11327;52.334;9.506;2024-02-21T04:24:14;9.00;99.90
22319;DHT22;11327;52.334;9.506;2024-02-21T04:27:35;9.00;99.90
22319;DHT22;11327;52.334;9.506;2024-02-21T04:30:55;8.90;99.90
22319;DHT22;11327;52.334;9.506;2024-02-21T04:34:16;8.90;99.90
22319;DHT22;11327;52.334;9.506;2024-02-21T04:37:37;8.90;99.90
22319;DHT22;11327;52.334;9.506;2024-02-21T04:40:57;8.90;99.90
22319;DHT22;11327;52.334;9.506;2024-02-21T04:44:18;8.90;99.90
22319;DHT22;11327;52.334;9.506;2024-02-21T04:47:42;8.90;99.90
22319;DHT22;11327;52.334;9.506;2024-02-21T04:51:04;8.90;99.90
22319;DHT22;11327;52.334;9.506;2024-02-21T04:54:24;9.00;99.90
22319;DHT22;11327;52.334;9.506;2024-02-21T04:57:45;9.40;99.90
22319;DHT22;11327;52.334;9.506;2024-02-21T05:01:06;8.90;99.90
22319;DHT22;11327;52.334;9.506;2024-02-21T05:04:28;8.90;99.90
22319;DHT22;11327;52.334;9.506;2024-02-21T05:07:49;9.30;99.90
22319;DHT22;11327;52.334;9.506;2024-02-21T05:11:09;8.90;99.90
22319;DHT22;11327;52.334;9.506;2024-02-21T05:14:30;8.90;99.90
22319;DHT22;11327;52.334;9.506;2024-02-21T05:17:51;8.80;99.90
22319;DHT22;11327;52.334;9.506;2024-02-21T05:21:11;8.80;99.90
22319;DHT22;11327;52.334;9.506;2024-02-21T05:24:33;8.90;99.90
22319;DHT22;11327;52.334;9.506;2024-02-21T05:27:53;9.30;99.90
22319;DHT22;11327;52.334;9.506;2024-02-21T05:31:17;8.80;99.90
22319;DHT22;11327;52.334;9.506;2024-02-21T05:34:38;8.80;99.90
22319;DHT22;11327;52.334;9.506;2024-02-21T05:37:59;8.80;99.90
22319;DHT22;11327;52.334;9.506;2024-02-21T05:41:20;8.80;99.90
22319;DHT22;11327;52.334;9.506;2024-02-21T05:44:40;8.70;99.90
22319;DHT22;11327;52.334;9.506;2024-02-21T05:48:01;8.70;99.90
22319;DHT22;11327;52.334;9.506;2024-02-21T05:51:23;8.80;99.90
22319;DHT22;11327;52.334;9.506;2024-02-21T05:54:43;8.80;99.90
22319;DHT22;11327;52.334;9.506;2024-02-21T05:58:04;8.90;99.90
22319;DHT22;11327;52.334;9.506;2024-02-21T06:01:26;8.80;99.90
22319;DHT22;11327;52.334;9.506;2024-02-21T06:04:47;8.70;99.90
22319;DHT22;11327;52.334;9.506;2024-02-21T06:08:07;8.80;99.90
22319;DHT22;11327;52.334;9.506;2024-02-21T06:11:29;8.60;99.90
22319;DHT22;11327;52.334;9.506;2024-02-21T06:14:50;8.80;99.90
22319;DHT22;11327;52.334;9.506;2024-02-21T06:18:11;8.80;99.90
22319;DHT22;11327;52.334;9.506;2024-02-21T06:21:31;8.80;99.90
22319;DHT22;11327;52.334;9.506;2024-02-21T06:24:52;8.70;99.90
22319;DHT22;11327;52.334;9.506;2024-02-21T06:28:14;8.70;99.90
22319;DHT22;11327;52.334;9.506;2024-02-21T06:31:35;8.60;99.90
22319;DHT22;11327;52.334;9.506;2024-02-21T06:34:56;8.70;99.90
22319;DHT22;11327;52.334;9.506;2024-02-21T06:38:17;8.70;99.90
22319;DHT22;11327;52.334;9.506;2024-02-21T06:41:38;8.70;99.90
22319;DHT22;11327;52.334;9.506;2024-02-21T06:44:59;8.60;99.90
22319;DHT22;11327;52.334;9.506;2024-02-21T06:48:20;8.60;99.90
22319;DHT22;11327;52.334;9.506;2024-02-21T06:51:40;8.60;99.90
22319;DHT22;11327;52.334;9.506;2024-02-21T06:55:01;8.70;99.90
22319;DHT22;11327;52.334;9.506;2024-02-21T06:58:22;8.60;99.90
22319;DHT22;11327;52.334;9.506;2024-02-21T07:01:52;8.70;99.90
22319;DHT22;11327;52.334;9.506;2024-02-21T07:05:12;8.60;99.90
22319;DHT22;11327;52.334;9.506;2024-02-21T07:08:33;8.70;99.90
22319;DHT22;11327;52.334;9.506;2024-02-21T07:11:54;8.60;99.90
22319;DHT22;11327;52.334;9.506;2024-02-21T07:15:15;8.70;99.90
22319;DHT22;11327;52.334;9.506;2024-02-21T07:18:35;8.70;99.90
22319;DHT22;11327;52.334;9.506;2024-02-21T07:21:56;8.70;99.90
22319;DHT22;11327;52.334;9.506;2024-02-21T07:25:17;8.70;99.90
22319;DHT22;11327;52.334;9.506;2024-02-21T07:28:38;8.80;99.90
22319;DHT22;11327;52.334;9.506;2024-02-21T07:31:59;8.80;99.90
22319;DHT22;11327;52.334;9.506;2024-02-21T07:35:20;8.80;99.90
22319;DHT22;11327;52.334;9.506;2024-02-21T07:38:40;8.70;99.90
22319;DHT22;11327;52.334;9.506;2024-02-21T07:42:02;8.70;99.90
22319;DHT22;11327;52.334;9.506;2024-02-21T07:45:23;8.70;99.90
22319;DHT22;11327;52.334;9.506;2024-02-21T07:48:47;8.80;99.90
22319;DHT22;11327;52.334;9.506;2024-02-21T07:52:09;8.80;99.90
22319;DHT22;11327;52.334;9.506;2024-02-21T07:55:30;9.20;99.90
22319;DHT22;11327;52.334;9.506;2024-02-21T07:58:50;8.90;99.90
22319;DHT22;11327;52.334;9.506;2024-02-21T08:02:11;8.90;99.90
22319;DHT22;11327;52.334;9.506;2024-02-21T08:05:34;9.30;99.90
22319;DHT22;11327;52.334;9.506;2024-02-21T08:08:55;8.90;99.90
22319;DHT22;11327;52.334;9.506;2024-02-21T08:12:17;8.90;99.90
22319;DHT22;11327;52.334;9.506;2024-02-21T08:15:38;8.90;99.90
22319;DHT22;11327;52.334;9.506;2024-02-21T08:19:00;8.90;99.90
22319;DHT22;11327;52.334;9.506;2024-02-21T08:22:22;9.00;99.90
22319;DHT22;11327;52.334;9.506;2024-02-21T08:25:43;8.90;99.90
22319;DHT22;11327;52.334;9.506;2024-02-21T08:29:04;9.00;99.90
22319;DHT22;11327;52.334;9.506;2024-02-21T08:32:24;9.10;99.90
22319;DHT22;11327;52.334;9.506;2024-02-21T08:35:45;9.10;99.90
22319;DHT22;11327;52.334;9.506;2024-02-21T08:39:06;9.10;99.90
22319;DHT22;11327;52.334;9.506;2024-02-21T08:42:27;9.10;99.90
22319;DHT22;11327;52.334;9.506;2024-02-21T08:45:48;9.80;99.90
22319;DHT22;11327;52.334;9.506;2024-02-21T08:49:10;9.20;99.90
22319;DHT22;11327;52.334;9.506;2024-02-21T08:52:30;9.30;99.90
22319;DHT22;11327;52.334;9.506;2024-02-21T08:55:56;9.40;99.90
22319;DHT22;11327;52.334;9.506;2024-02-21T08:59:16;9.50;99.90
22319;DHT22;11327;52.334;9.506;2024-02-21T09:02:41;9.40;99.90
22319;DHT22;11327;52.334;9.506;2024-02-21T09:06:06;9.40;99.90
22319;DHT22;11327;52.334;9.506;2024-02-21T09:09:27;9.60;99.90
22319;DHT22;11327;52.334;9.506;2024-02-21T09:12:48;9.50;99.90
22319;DHT22;11327;52.334;9.506;2024-02-21T09:16:09;9.60;99.90
22319;DHT22;11327;52.334;9.506;2024-02-21T09:19:30;9.60;99.90
22319;DHT22;11327;52.334;9.506;2024-02-21T09:22:51;9.70;99.90
22319;DHT22;11327;52.334;9.506;2024-02-21T09:26:12;9.70;99.90
22319;DHT22;11327;52.334;9.506;2024-02-21T09:29:34;9.70;99.90
22319;DHT22;11327;52.334;9.506;2024-02-21T09:32:55;9.80;99.90
22319;DHT22;11327;52.334;9.506;2024-02-21T09:36:16;9.80;99.90
22319;DHT22;11327;52.334;9.506;2024-02-21T09:39:36;9.90;99.90
22319;DHT22;11327;52.334;9.506;2024-02-21T09:43:02;9.90;99.90
22319;DHT22;11327;52.334;9.506;2024-02-21T09:46:40;10.20;99.90
22319;DHT22;11327;52.334;9.506;2024-02-21T09:49:49;10.20;99.90
22319;DHT22;11327;52.334;9.506;2024-02-21T09:53:12;10.00;99.90
22319;DHT22;11327;52.334;9.506;2024-02-21T09:56:34;10.00;99.90
22319;DHT22;11327;52.334;9.506;2024-02-21T09:59:55;10.00;99.90
22319;DHT22;11327;52.334;9.506;2024-02-21T10:03:17;10.10;99.90
22319;DHT22;11327;52.334;9.506;2024-02-21T10:06:38;10.10;99.90
22319;DHT22;11327;52.334;9.506;2024-02-21T10:10:03;10.10;99.90
22319;DHT22;11327;52.334;9.506;2024-02-21T10:13:26;10.10;99.90
22319;DHT22;11327;52.334;9.506;2024-02-21T10:16:56;10.30;99.90
22319;DHT22;11327;52.334;9.506;2024-02-21T10:20:12;10.20;99.90
22319;DHT22;11327;52.334;9.506;2024-02-21T10:23:45;10.30;99.90
22319;DHT22;11327;52.334;9.506;2024-02-21T10:27:06;10.40;99.90
22319;DHT22;11327;52.334;9.506;2024-02-21T10:30:33;10.40;99.90
22319;DHT22;11327;52.334;9.506;2024-02-21T10:34:00;10.40;99.90
22319;DHT22;11327;52.334;9.506;2024-02-21T10:37:23;10.50;99.90
22319;DHT22;11327;52.334;9.506;2024-02-21T10:40:46;10.60;99.90
22319;DHT22;11327;52.334;9.506;2024-02-21T10:44:09;10.60;99.90
22319;DHT22;11327;52.334;9.506;2024-02-21T10:47:32;10.30;99.90
22319;DHT22;11327;52.334;9.506;2024-02-21T10:51:02;10.50;99.90
22319;DHT22;11327;52.334;9.506;2024-02-21T10:54:45;10.50;99.90
22319;DHT22;11327;52.334;9.506;2024-02-21T10:58:09;10.50;99.90
22319;DHT22;11327;52.334;9.506;2024-02-21T11:01:31;10.70;99.90
22319;DHT22;11327;52.334;9.506;2024-02-21T11:04:53;10.60;99.90
22319;DHT22;11327;52.334;9.506;2024-02-21T11:08:15;10.80;99.90
22319;DHT22;11327;52.334;9.506;2024-02-21T11:11:38;10.80;99.90
22319;DHT22;11327;52.334;9.506;2024-02-21T11:15:06;10.80;99.90
22319;DHT22;11327;52.334;9.506;2024-02-21T11:18:27;10.70;99.90
22319;DHT22;11327;52.334;9.506;2024-02-21T11:21:48;10.70;99.90
22319;DHT22;11327;52.334;9.506;2024-02-21T11:25:09;10.80;99.90
22319;DHT22;11327;52.334;9.506;2024-02-21T11:28:33;11.00;99.90
22319;DHT22;11327;52.334;9.506;2024-02-21T11:31:54;11.00;99.90
22319;DHT22;11327;52.334;9.506;2024-02-21T11:35:20;10.80;99.90
22319;DHT22;11327;52.334;9.506;2024-02-21T11:38:40;10.80;99.90
22319;DHT22;11327;52.334;9.506;2024-02-21T11:42:05;10.80;99.90
22319;DHT22;11327;52.334;9.506;2024-02-21T11:45:28;10.80;99.90
22319;DHT22;11327;52.334;9.506;2024-02-21T11:48:49;10.90;99.90
22319;DHT22;11327;52.334;9.506;2024-02-21T11:52:10;10.90;99.90
22319;DHT22;11327;52.334;9.506;2024-02-21T11:55:31;11.10;99.90
22319;DHT22;11327;52.334;9.506;2024-02-21T11:58:52;11.10;99.90
22319;DHT22;11327;52.334;9.506;2024-02-21T12:02:13;11.30;99.90
22319;DHT22;11327;52.334;9.506;2024-02-21T12:05:35;12.70;99.90
22319;DHT22;11327;52.334;9.506;2024-02-21T12:08:58;11.20;99.90
22319;DHT22;11327;52.334;9.506;2024-02-21T12:12:20;11.20;99.90
22319;DHT22;11327;52.334;9.506;2024-02-21T12:15:41;11.20;99.90
22319;DHT22;11327;52.334;9.506;2024-02-21T12:19:03;11.20;99.90
22319;DHT22;11327;52.334;9.506;2024-02-21T12:22:25;11.20;99.90
22319;DHT22;11327;52.334;9.506;2024-02-21T12:25:46;11.40;99.90
22319;DHT22;11327;52.334;9.506;2024-02-21T12:29:07;11.40;99.90
22319;DHT22;11327;52.334;9.506;2024-02-21T12:32:31;11.40;99.90
22319;DHT22;11327;52.334;9.506;2024-02-21T12:35:52;11.40;99.90
22319;DHT22;11327;52.334;9.506;2024-02-21T12:39:15;11.30;99.90
22319;DHT22;11327;52.334;9.506;2024-02-21T12:42:36;11.40;99.90
22319;DHT22;11327;52.334;9.506;2024-02-21T12:45:57;11.40;99.90
22319;DHT22;11327;52.334;9.506;2024-02-21T12:49:18;12.10;99.90
22319;DHT22;11327;52.334;9.506;2024-02-21T12:52:38;11.40;99.90
22319;DHT22;11327;52.334;9.506;2024-02-21T12:56:00;11.40;99.90
22319;DHT22;11327;52.334;9.506;2024-02-21T12:59:20;11.40;99.90
22319;DHT22;11327;52.334;9.506;2024-02-21T13:02:41;11.40;99.90
22319;DHT22;11327;52.334;9.506;2024-02-21T13:06:03;11.50;99.90
22319;DHT22;11327;52.334;9.506;2024-02-21T13:09:24;11.50;99.90
22319;DHT22;11327;52.334;9.506;2024-02-21T13:12:45;13.50;99.90
22319;DHT22;11327;52.334;9.506;2024-02-21T13:16:06;11.50;99.90
22319;DHT22;11327;52.334;9.506;2024-02-21T13:19:27;11.40;99.90
22319;DHT22;11327;52.334;9.506;2024-02-21T13:22:48;11.30;99.90
22319;DHT22;11327;52.334;9.506;2024-02-21T13:26:08;11.30;99.90
22319;DHT22;11327;52.334;9.506;2024-02-21T13:29:30;11.30;99.90
22319;DHT22;11327;52.334;9.506;2024-02-21T13:32:51;11.30;99.90
22319;DHT22;11327;52.334;9.506;2024-02-21T13:36:12;11.50;99.90
22319;DHT22;11327;52.334;9.506;2024-02-21T13:39:33;11.20;99.90
22319;DHT22;11327;52.334;9.506;2024-02-21T13:42:55;11.20;99.90
22319;DHT22;11327;52.334;9.506;2024-02-21T13:46:16;11.30;99.90
22319;DHT22;11327;52.334;9.506;2024-02-21T13:49:36;11.30;99.90
22319;DHT22;11327;52.334;9.506;2024-02-21T13:52:57;12.20;99.90
22319;DHT22;11327;52.334;9.506;2024-02-21T13:56:18;11.30;99.90
22319;DHT22;11327;52.334;9.506;2024-02-21T13:59:39;11.30;99.90
22319;DHT22;11327;52.334;9.506;2024-02-21T14:03:00;11.20;99.90
22319;DHT22;11327;52.334;9.506;2024-02-21T14:06:21;11.20;99.90
22319;DHT22;11327;52.334;9.506;2024-02-21T14:09:42;11.20;99.90
22319;DHT22;11327;52.334;9.506;2024-02-21T14:13:03;8.80;99.90
22319;DHT22;11327;52.334;9.506;2024-02-21T14:16:25;11.20;99.90
22319;DHT22;11327;52.334;9.506;2024-02-21T14:19:46;11.30;99.90
22319;DHT22;11327;52.334;9.506;2024-02-21T14:23:07;11.30;99.90
22319;DHT22;11327;52.334;9.506;2024-02-21T14:26:27;11.30;99.90
22319;DHT22;11327;52.334;9.506;2024-02-21T14:29:48;11.30;99.90
22319;DHT22;11327;52.334;9.506;2024-02-21T14:33:09;11.20;99.90
22319;DHT22;11327;52.334;9.506;2024-02-21T14:36:30;11.10;99.90
22319;DHT22;11327;52.334;9.506;2024-02-21T14:39:51;11.20;99.90
22319;DHT22;11327;52.334;9.506;2024-02-21T14:43:11;11.20;99.90
22319;DHT22;11327;52.334;9.506;2024-02-21T14:46:33;11.20;99.90
22319;DHT22;11327;52.334;9.506;2024-02-21T14:49:54;11.20;99.90
22319;DHT22;11327;52.334;9.506;2024-02-21T14:53:15;11.20;99.90
22319;DHT22;11327;52.334;9.506;2024-02-21T14:56:37;11.20;99.90
22319;DHT22;11327;52.334;9.506;2024-02-21T14:59:59;11.20;99.90
22319;DHT22;11327;52.334;9.506;2024-02-21T15:03:20;11.20;99.90
22319;DHT22;11327;52.334;9.506;2024-02-21T15:06:41;11.20;99.90
22319;DHT22;11327;52.334;9.506;2024-02-21T15:10:03;11.10;99.90
22319;DHT22;11327;52.334;9.506;2024-02-21T15:13:24;11.00;99.90
22319;DHT22;11327;52.334;9.506;2024-02-21T15:16:45;11.20;99.90
22319;DHT22;11327;52.334;9.506;2024-02-21T15:20:07;11.20;99.90
22319;DHT22;11327;52.334;9.506;2024-02-21T15:23:28;10.90;99.90
22319;DHT22;11327;52.334;9.506;2024-02-21T15:26:49;10.80;99.90
22319;DHT22;11327;52.334;9.506;2024-02-21T15:30:12;10.80;99.90
22319;DHT22;11327;52.334;9.506;2024-02-21T15:33:33;10.70;99.90
22319;DHT22;11327;52.334;9.506;2024-02-21T15:36:54;10.60;99.90
22319;DHT22;11327;52.334;9.506;2024-02-21T15:40:14;10.60;99.90
22319;DHT22;11327;52.334;9.506;2024-02-21T15:43:35;10.50;99.90
22319;DHT22;11327;52.334;9.506;2024-02-21T15:46:58;10.40;99.90
22319;DHT22;11327;52.334;9.506;2024-02-21T15:50:19;10.40;99.90
22319;DHT22;11327;52.334;9.506;2024-02-21T15:53:40;10.40;99.90
22319;DHT22;11327;52.334;9.506;2024-02-21T15:57:03;11.00;99.90
22319;DHT22;11327;52.334;9.506;2024-02-21T16:00:26;10.30;99.90
22319;DHT22;11327;52.334;9.506;2024-02-21T16:03:47;10.30;99.90
22319;DHT22;11327;52.334;9.506;2024-02-21T16:07:07;10.30;99.90
22319;DHT22;11327;52.334;9.506;2024-02-21T16:10:28;10.20;99.90
22319;DHT22;11327;52.334;9.506;2024-02-21T16:13:49;10.10;99.90
22319;DHT22;11327;52.334;9.506;2024-02-21T16:17:11;10.00;99.90
22319;DHT22;11327;52.334;9.506;2024-02-21T16:20:31;11.90;99.90
22319;DHT22;11327;52.334;9.506;2024-02-21T16:23:52;10.10;99.90
22319;DHT22;11327;52.334;9.506;2024-02-21T16:27:13;10.10;99.90
22319;DHT22;11327;52.334;9.506;2024-02-21T16:30:35;9.90;99.90
22319;DHT22;11327;52.334;9.506;2024-02-21T16:33:55;9.90;99.90
22319;DHT22;11327;52.334;9.506;2024-02-21T16:37:16;9.80;99.90
22319;DHT22;11327;52.334;9.506;2024-02-21T16:40:37;9.70;99.90
22319;DHT22;11327;52.334;9.506;2024-02-21T16:43:58;9.70;99.90
22319;DHT22;11327;52.334;9.506;2024-02-21T16:47:18;9.70;99.90
22319;DHT22;11327;52.334;9.506;2024-02-21T16:50:40;9.80;99.90
22319;DHT22;11327;52.334;9.506;2024-02-21T16:54:00;10.10;99.90
22319;DHT22;11327;52.334;9.506;2024-02-21T16:57:23;9.80;99.90
22319;DHT22;11327;52.334;9.506;2024-02-21T17:00:44;9.80;99.90
22319;DHT22;11327;52.334;9.506;2024-02-21T17:04:05;9.70;99.90
22319;DHT22;11327;52.334;9.506;2024-02-21T17:07:27;9.80;99.90
22319;DHT22;11327;52.334;9.506;2024-02-21T17:10:48;9.80;99.90
22319;DHT22;11327;52.334;9.506;2024-02-21T17:14:08;9.80;99.90
22319;DHT22;11327;52.334;9.506;2024-02-21T17:17:29;9.70;99.90
22319;DHT22;11327;52.334;9.506;2024-02-21T17:20:50;9.70;99.90
22319;DHT22;11327;52.334;9.506;2024-02-21T17:24:10;10.30;99.90
22319;DHT22;11327;52.334;9.506;2024-02-21T17:27:31;9.70;99.90
22319;DHT22;11327;52.334;9.506;2024-02-21T17:30:52;9.70;99.90
22319;DHT22;11327;52.334;9.506;2024-02-21T17:34:13;9.80;99.90
22319;DHT22;11327;52.334;9.506;2024-02-21T17:37:33;9.70;99.90
22319;DHT22;11327;52.334;9.506;2024-02-21T17:40:54;9.70;99.90
22319;DHT22;11327;52.334;9.506;2024-02-21T17:44:15;9.70;99.90
22319;DHT22;11327;52.334;9.506;2024-02-21T17:47:35;9.70;99.90
22319;DHT22;11327;52.334;9.506;2024-02-21T17:50:56;9.70;99.90
22319;DHT22;11327;52.334;9.506;2024-02-21T17:54:17;9.70;99.90
22319;DHT22;11327;52.334;9.506;2024-02-21T17:57:38;9.70;99.90
22319;DHT22;11327;52.334;9.506;2024-02-21T18:01:01;9.70;99.90
22319;DHT22;11327;52.334;9.506;2024-02-21T18:04:22;9.70;99.90
22319;DHT22;11327;52.334;9.506;2024-02-21T18:07:43;9.70;99.90
22319;DHT22;11327;52.334;9.506;2024-02-21T18:11:04;9.50;99.90
22319;DHT22;11327;52.334;9.506;2024-02-21T18:14:25;9.70;99.90
22319;DHT22;11327;52.334;9.506;2024-02-21T18:17:46;9.70;99.90
22319;DHT22;11327;52.334;9.506;2024-02-21T18:21:08;9.70;99.90
22319;DHT22;11327;52.334;9.506;2024-02-21T18:24:29;9.70;99.90
22319;DHT22;11327;52.334;9.506;2024-02-21T18:27:50;10.20;99.90
22319;DHT22;11327;52.334;9.506;2024-02-21T18:31:12;9.70;99.90
22319;DHT22;11327;52.334;9.506;2024-02-21T18:34:33;10.80;99.90
22319;DHT22;11327;52.334;9.506;2024-02-21T18:37:54;9.70;99.90
22319;DHT22;11327;52.334;9.506;2024-02-21T18:41:16;9.70;99.90
22319;DHT22;11327;52.334;9.506;2024-02-21T18:44:37;9.70;99.90
22319;DHT22;11327;52.334;9.506;2024-02-21T18:47:57;9.70;99.90
22319;DHT22;11327;52.334;9.506;2024-02-21T18:51:18;9.70;99.90
22319;DHT22;11327;52.334;9.506;2024-02-21T18:54:39;9.70;99.90
22319;DHT22;11327;52.334;9.506;2024-02-21T18:58:02;9.60;99.90
22319;DHT22;11327;52.334;9.506;2024-02-21T19:01:23;9.70;99.90
22319;DHT22;11327;52.334;9.506;2024-02-21T19:04:44;9.70;99.90
22319;DHT22;11327;52.334;9.506;2024-02-21T19:08:05;9.70;99.90
22319;DHT22;11327;52.334;9.506;2024-02-21T19:11:26;9.70;99.90
22319;DHT22;11327;52.334;9.506;2024-02-21T19:14:47;9.70;99.90
22319;DHT22;11327;52.334;9.506;2024-02-21T19:18:07;10.10;99.90
22319;DHT22;11327;52.334;9.506;2024-02-21T19:21:28;9.70;99.90
22319;DHT22;11327;52.334;9.506;2024-02-21T19:24:49;9.70;99.90
22319;DHT22;11327;52.334;9.506;2024-02-21T19:28:10;9.70;99.90
22319;DHT22;11327;52.334;9.506;2024-02-21T19:31:33;9.90;99.90
22319;DHT22;11327;52.334;9.506;2024-02-21T19:34:54;9.80;99.90
22319;DHT22;11327;52.334;9.506;2024-02-21T19:38:17;9.80;99.90
22319;DHT22;11327;52.334;9.506;2024-02-21T19:41:38;9.80;99.90
22319;DHT22;11327;52.334;9.506;2024-02-21T19:44:59;9.70;99.90
22319;DHT22;11327;52.334;9.506;2024-02-21T19:48:19;9.80;99.90
22319;DHT22;11327;52.334;9.506;2024-02-21T19:51:40;9.80;99.90
22319;DHT22;11327;52.334;9.506;2024-02-21T19:55:02;9.80;99.90
22319;DHT22;11327;52.334;9.506;2024-02-21T19:58:22;9.80;99.90
22319;DHT22;11327;52.334;9.506;2024-02-21T20:01:43;9.80;99.90
22319;DHT22;11327;52.334;9.506;2024-02-21T20:05:04;10.10;99.90
22319;DHT22;11327;52.334;9.506;2024-02-21T20:08:25;9.70;99.90
22319;DHT22;11327;52.334;9.506;2024-02-21T20:11:46;9.80;99.90
22319;DHT22;11327;52.334;9.506;2024-02-21T20:15:07;9.70;99.90
22319;DHT22;11327;52.334;9.506;2024-02-21T20:18:28;9.60;99.90
22319;DHT22;11327;52.334;9.506;2024-02-21T20:21:49;9.60;99.90
22319;DHT22;11327;52.334;9.506;2024-02-21T20:25:10;9.60;99.90
22319;DHT22;11327;52.334;9.506;2024-02-21T20:28:30;9.60;99.90
22319;DHT22;11327;52.334;9.506;2024-02-21T20:31:52;9.50;99.90
22319;DHT22;11327;52.334;9.506;2024-02-21T20:35:12;9.50;99.90
22319;DHT22;11327;52.334;9.506;2024-02-21T20:38:33;9.50;99.90
22319;DHT22;11327;52.334;9.506;2024-02-21T20:41:54;9.50;99.90
22319;DHT22;11327;52.334;9.506;2024-02-21T20:45:17;9.40;99.90
22319;DHT22;11327;52.334;9.506;2024-02-21T20:48:38;9.40;99.90
22319;DHT22;11327;52.334;9.506;2024-02-21T20:51:59;9.40;99.90
22319;DHT22;11327;52.334;9.506;2024-02-21T20:55:19;9.30;99.90
22319;DHT22;11327;52.334;9.506;2024-02-21T20:58:44;9.30;99.90
22319;DHT22;11327;52.334;9.506;2024-02-21T21:02:05;9.30;99.90
22319;DHT22;11327;52.334;9.506;2024-02-21T21:05:26;10.90;99.90
22319;DHT22;11327;52.334;9.506;2024-02-21T21:08:46;9.30;99.90
22319;DHT22;11327;52.334;9.506;2024-02-21T21:12:07;9.30;99.90
22319;DHT22;11327;52.334;9.506;2024-02-21T21:15:28;9.30;99.90
22319;DHT22;11327;52.334;9.506;2024-02-21T21:18:50;9.30;99.90
22319;DHT22;11327;52.334;9.506;2024-02-21T21:22:10;10.50;99.90
22319;DHT22;11327;52.334;9.506;2024-02-21T21:25:31;9.30;99.90